Time;durP1;ratioP1;P1;durP2;ratioP2;P2;SDS_P1;SDS_P2;PMS_P1;PMS_P2;Temp;Humidity;BMP_temperature;BMP_pressure;BME280_temperature;BME280_humidity;BME280_pressure;Samples;Min_cycle;Max_cycle;Signal;HPM_P1;HPM_P2
2022/01/01 00:00:44;;;;;;;0.30;0.30;;;;;;;;;;5021557;28;20670;-84
2022/01/01 00:03:10;;;;;;;0.30;0.30;;;;;;;;;;5007305;28;20033;-83
2022/01/01 00:05:37;;;;;;;0.30;0.30;;;;;;;;;;5010118;28;20033;-83
2022/01/01 00:08:05;;;;;;;0.30;0.30;;;;;;;;;;5031278;28;20125;-83
2022/01/01 00:10:31;;;;;;;0.30;0.30;;;;;;;;;;5042186;28;20277;-84
2022/01/01 00:12:57;;;;;;;0.30;0.30;;;;;;;;;;5011984;28;20128;-84
2022/01/01 00:15:23;;;;;;;0.30;0.30;;;;;;;;;;5023501;28;20145;-83
2022/01/01 00:17:49;;;;;;;0.30;0.30;;;;;;;;;;5006713;28;20112;-83
2022/01/01 00:20:15;;;;;;;0.30;0.30;;;;;;;;;;5011514;28;20063;-78
2022/01/01 00:22:42;;;;;;;0.20;0.20;;;;;;;;;;5014237;28;20091;-79
2022/01/01 00:25:09;;;;;;;0.30;0.30;;;;;;;;;;5017209;28;20025;-82
2022/01/01 00:27:35;;;;;;;0.30;0.30;;;;;;;;;;5022602;28;20044;-79
2022/01/01 00:30:01;;;;;;;0.30;0.30;;;;;;;;;;5008887;28;20533;-79
2022/01/01 00:32:27;;;;;;;0.30;0.30;;;;;;;;;;5019821;28;20060;-78
2022/01/01 00:34:53;;;;;;;0.30;0.30;;;;;;;;;;5013241;28;20045;-80
2022/01/01 00:37:20;;;;;;;0.20;0.20;;;;;;;;;;5009226;28;20064;-80
2022/01/01 00:39:47;;;;;;;0.30;0.30;;;;;;;;;;5007339;28;20061;-80
2022/01/01 00:42:13;;;;;;;0.20;0.20;;;;;;;;;;5007190;28;20029;-80
2022/01/01 00:44:39;;;;;;;0.43;0.43;;;;;;;;;;5006144;28;20096;-81
2022/01/01 00:47:05;;;;;;;0.30;0.30;;;;;;;;;;5029432;28;20682;-81
2022/01/01 00:49:31;;;;;;;0.30;0.30;;;;;;;;;;5039944;28;20036;-80
2022/01/01 00:51:57;;;;;;;0.30;0.30;;;;;;;;;;5027936;28;20052;-79
2022/01/01 00:54:23;;;;;;;0.30;0.30;;;;;;;;;;5040831;28;20072;-79
2022/01/01 00:56:50;;;;;;;0.20;0.20;;;;;;;;;;5016931;28;20059;-78
2022/01/01 00:59:16;;;;;;;0.30;0.30;;;;;;;;;;5020415;28;20095;-81
2022/01/01 01:01:42;;;;;;;0.30;0.30;;;;;;;;;;5014780;28;20436;-80
2022/01/01 01:04:09;;;;;;;0.30;0.30;;;;;;;;;;5010628;28;20025;-80
2022/01/01 01:06:35;;;;;;;0.30;0.30;;;;;;;;;;5007320;28;20057;-80
2022/01/01 01:09:01;;;;;;;0.30;0.30;;;;;;;;;;5023134;28;20036;-78
2022/01/01 01:11:28;;;;;;;0.25;0.25;;;;;;;;;;5019422;28;20030;-78
2022/01/01 01:14:00;;;;;;;0.38;0.38;;;;;;;;;;5012274;28;20053;-78
2022/01/01 01:16:27;;;;;;;0.30;0.30;;;;;;;;;;5013468;28;20047;-78
2022/01/01 01:18:54;;;;;;;0.20;0.20;;;;;;;;;;5019392;28;20032;-78
2022/01/01 01:21:24;;;;;;;0.30;0.30;;;;;;;;;;5007635;28;20055;-78
2022/01/01 01:23:50;;;;;;;0.30;0.30;;;;;;;;;;5007648;28;20034;-78
2022/01/01 01:26:17;;;;;;;0.20;0.20;;;;;;;;;;5009544;28;20048;-78
2022/01/01 01:28:49;;;;;;;0.28;0.28;;;;;;;;;;5009973;28;20128;-78
2022/01/01 01:31:16;;;;;;;0.30;0.30;;;;;;;;;;5011100;28;20038;-78
2022/01/01 01:33:43;;;;;;;0.30;0.30;;;;;;;;;;5020578;28;20029;-78
2022/01/01 01:36:09;;;;;;;0.30;0.30;;;;;;;;;;5005166;28;20072;-78
2022/01/01 01:38:36;;;;;;;0.20;0.20;;;;;;;;;;5008610;28;20041;-78
2022/01/01 01:41:06;;;;;;;0.20;0.20;;;;;;;;;;5009419;28;20030;-78
2022/01/01 01:43:32;;;;;;;0.25;0.25;;;;;;;;;;5013037;28;20034;-78
2022/01/01 01:46:04;;;;;;;0.30;0.30;;;;;;;;;;5019054;28;20083;-78
2022/01/01 01:48:34;;;;;;;0.52;0.52;;;;;;;;;;5006128;28;20061;-78
2022/01/01 01:51:00;;;;;;;0.30;0.30;;;;;;;;;;5003625;28;20034;-78
2022/01/01 01:53:27;;;;;;;0.30;0.30;;;;;;;;;;5008761;28;20061;-78
2022/01/01 01:55:53;;;;;;;0.30;0.30;;;;;;;;;;5015698;28;20052;-78
2022/01/01 01:58:20;;;;;;;0.30;0.30;;;;;;;;;;5014490;28;20517;-78
2022/01/01 02:03:31;;;;;;;0.30;0.30;;;;;;;;;;5007757;28;20036;-78
2022/01/01 02:05:58;;;;;;;0.20;0.20;;;;;;;;;;5005936;28;20115;-79
2022/01/01 02:08:24;;;;;;;0.30;0.30;;;;;;;;;;5008844;28;20034;-81
2022/01/01 02:10:52;;;;;;;0.30;0.30;;;;;;;;;;5015910;28;20112;-82
2022/01/01 02:13:25;;;;;;;0.30;0.30;;;;;;;;;;5016273;28;20028;-81
2022/01/01 02:18:18;;;;;;;0.40;0.40;;;;;;;;;;5005964;28;20554;-81
2022/01/01 02:20:51;;;;;;;0.30;0.30;;;;;;;;;;5019541;28;20120;-80
2022/01/01 02:23:17;;;;;;;0.30;0.30;;;;;;;;;;5019218;28;20594;-80
2022/01/01 02:25:44;;;;;;;0.30;0.30;;;;;;;;;;5011423;28;20034;-81
2022/01/01 02:28:13;;;;;;;0.30;0.30;;;;;;;;;;5009005;28;20033;-81
2022/01/01 02:30:39;;;;;;;0.30;0.30;;;;;;;;;;5008857;28;20036;-80
2022/01/01 02:33:05;;;;;;;0.23;0.23;;;;;;;;;;5004655;28;20029;-80
2022/01/01 02:35:31;;;;;;;0.30;0.30;;;;;;;;;;5017576;28;20080;-78
2022/01/01 02:37:57;;;;;;;0.20;0.20;;;;;;;;;;5017027;28;20116;-78
2022/01/01 02:40:23;;;;;;;0.30;0.30;;;;;;;;;;5014121;28;20022;-78
2022/01/01 02:42:51;;;;;;;0.20;0.20;;;;;;;;;;5006899;28;20029;-78
2022/01/01 02:45:17;;;;;;;0.20;0.20;;;;;;;;;;5020194;28;20099;-77
2022/01/01 02:47:43;;;;;;;0.20;0.20;;;;;;;;;;5006990;28;20034;-78
2022/01/01 02:50:09;;;;;;;0.22;0.22;;;;;;;;;;5017942;28;20560;-77
2022/01/01 02:52:36;;;;;;;0.30;0.30;;;;;;;;;;5012245;28;20036;-77
2022/01/01 02:55:02;;;;;;;0.30;0.30;;;;;;;;;;5008212;28;20048;-78
2022/01/01 02:57:28;;;;;;;0.20;0.20;;;;;;;;;;5020588;28;20079;-77
2022/01/01 02:59:54;;;;;;;0.20;0.20;;;;;;;;;;5023648;28;20021;-77
2022/01/01 03:02:20;;;;;;;0.20;0.20;;;;;;;;;;5019277;28;20548;-77
2022/01/01 03:04:46;;;;;;;0.30;0.30;;;;;;;;;;5014173;28;20029;-78
2022/01/01 03:07:12;;;;;;;0.20;0.20;;;;;;;;;;5013223;28;20134;-78
2022/01/01 03:09:38;;;;;;;0.30;0.30;;;;;;;;;;5023690;28;20032;-78
2022/01/01 03:12:05;;;;;;;0.57;0.57;;;;;;;;;;5009049;28;23676;-76
2022/01/01 03:14:31;;;;;;;;;;;;;;;;;;5015457;28;20102;-77
2022/01/01 03:16:57;;;;;;;0.60;0.60;;;;;;;;;;5022501;28;19936;-77
2022/01/01 03:19:23;;;;;;;0.50;0.50;;;;;;;;;;5018385;28;20084;-77
2022/01/01 03:21:49;;;;;;;0.40;0.40;;;;;;;;;;5020708;28;20277;-79
2022/01/01 03:24:16;;;;;;;0.38;0.38;;;;;;;;;;5023175;28;20851;-78
2022/01/01 03:26:42;;;;;;;0.30;0.30;;;;;;;;;;5010126;28;20139;-78
2022/01/01 03:29:08;;;;;;;0.40;0.40;;;;;;;;;;5012631;28;20056;-78
2022/01/01 03:31:34;;;;;;;0.30;0.30;;;;;;;;;;5051161;28;20045;-78
2022/01/01 03:34:01;;;;;;;0.40;0.40;;;;;;;;;;5020919;28;20079;-79
2022/01/01 03:36:27;;;;;;;0.30;0.30;;;;;;;;;;5021659;28;20370;-79
2022/01/01 03:38:53;;;;;;;0.30;0.30;;;;;;;;;;5023433;28;20121;-79
2022/01/01 03:41:20;;;;;;;0.40;0.40;;;;;;;;;;5011175;28;20041;-79
2022/01/01 03:43:46;;;;;;;0.30;0.30;;;;;;;;;;5016527;28;20475;-79
2022/01/01 03:46:12;;;;;;;0.25;0.25;;;;;;;;;;5019114;28;20061;-79
2022/01/01 03:48:38;;;;;;;0.40;0.40;;;;;;;;;;5011879;28;20041;-79
2022/01/01 03:51:04;;;;;;;0.30;0.30;;;;;;;;;;5020145;28;20038;-79
2022/01/01 03:53:30;;;;;;;0.30;0.30;;;;;;;;;;5010970;28;20038;-79
2022/01/01 03:55:58;;;;;;;0.40;0.40;;;;;;;;;;5011490;28;20049;-79
2022/01/01 03:58:24;;;;;;;0.50;0.50;;;;;;;;;;5014576;28;20284;-79
2022/01/01 04:00:50;;;;;;;0.30;0.30;;;;;;;;;;5021137;28;20108;-79
2022/01/01 04:03:17;;;;;;;0.40;0.40;;;;;;;;;;5007947;28;20130;-79
2022/01/01 04:05:43;;;;;;;0.30;0.30;;;;;;;;;;5009318;28;20028;-79
2022/01/01 04:08:10;;;;;;;0.30;0.30;;;;;;;;;;5011231;28;20033;-78
2022/01/01 04:10:36;;;;;;;0.40;0.40;;;;;;;;;;5011314;28;20588;-78
2022/01/01 04:13:03;;;;;;;0.32;0.32;;;;;;;;;;5011437;28;20030;-78
2022/01/01 04:15:29;;;;;;;;;;;;;;;;;;5009615;28;20060;-78
2022/01/01 04:17:59;;;;;;;0.30;0.30;;;;;;;;;;5024029;28;19909;-78
2022/01/01 04:20:25;;;;;;;0.20;0.20;;;;;;;;;;5010401;28;20539;-78
2022/01/01 04:22:52;;;;;;;0.40;0.40;;;;;;;;;;5029042;28;20041;-78
2022/01/01 04:25:18;;;;;;;;;;;;;;;;;;5014516;28;20065;-78
2022/01/01 04:27:44;;;;;;;0.45;0.45;;;;;;;;;;5011015;28;19963;-78
2022/01/01 04:30:10;;;;;;;0.40;0.40;;;;;;;;;;5006933;28;20503;-78
2022/01/01 04:32:36;;;;;;;0.40;0.40;;;;;;;;;;5010176;28;20579;-78
2022/01/01 04:35:02;;;;;;;0.32;0.32;;;;;;;;;;5019018;28;20408;-78
2022/01/01 04:37:28;;;;;;;0.80;0.80;;;;;;;;;;5015446;28;20030;-78
2022/01/01 04:39:59;;;;;;;0.52;0.52;;;;;;;;;;5010617;28;20045;-78
2022/01/01 04:42:25;;;;;;;0.60;0.60;;;;;;;;;;5008671;28;20033;-78
2022/01/01 04:44:51;;;;;;;0.63;0.63;;;;;;;;;;5008525;28;20105;-78
2022/01/01 04:47:17;;;;;;;0.60;0.60;;;;;;;;;;5017498;28;20532;-78
2022/01/01 04:49:43;;;;;;;0.52;0.52;;;;;;;;;;5014527;28;20034;-78
2022/01/01 04:52:09;;;;;;;0.60;0.60;;;;;;;;;;5010458;28;20550;-80
2022/01/01 04:54:39;;;;;;;0.50;0.50;;;;;;;;;;5009518;28;20095;-80
2022/01/01 04:57:06;;;;;;;0.70;0.70;;;;;;;;;;5005874;28;20038;-79
2022/01/01 04:59:32;;;;;;;0.55;0.55;;;;;;;;;;5020757;28;20025;-80
2022/01/01 05:01:58;;;;;;;0.50;0.50;;;;;;;;;;5010927;28;20030;-79
2022/01/01 05:04:24;;;;;;;0.47;0.47;;;;;;;;;;5010297;28;20076;-80
2022/01/01 05:06:51;;;;;;;0.50;0.50;;;;;;;;;;5008594;28;20033;-80
2022/01/01 05:09:17;;;;;;;0.43;0.43;;;;;;;;;;5021796;28;20026;-79
2022/01/01 05:11:43;;;;;;;0.50;0.50;;;;;;;;;;5008485;28;20044;-79
2022/01/01 05:14:10;;;;;;;0.67;0.67;;;;;;;;;;5019246;28;20060;-79
2022/01/01 05:16:36;;;;;;;0.50;0.50;;;;;;;;;;5016814;28;20067;-79
2022/01/01 05:19:02;;;;;;;0.50;0.50;;;;;;;;;;5018030;28;20272;-79
2022/01/01 05:21:31;;;;;;;0.45;0.45;;;;;;;;;;5007607;28;20030;-79
2022/01/01 05:23:58;;;;;;;0.65;0.65;;;;;;;;;;5009905;28;20028;-79
2022/01/01 05:26:24;;;;;;;0.50;0.50;;;;;;;;;;5017657;28;20040;-79
2022/01/01 05:28:50;;;;;;;0.40;0.40;;;;;;;;;;5011892;28;20026;-79
2022/01/01 05:31:17;;;;;;;0.47;0.47;;;;;;;;;;5009726;28;20218;-79
2022/01/01 05:33:43;;;;;;;0.40;0.40;;;;;;;;;;5010030;28;20030;-79
2022/01/01 05:36:09;;;;;;;0.40;0.40;;;;;;;;;;5022405;28;20072;-80
2022/01/01 05:38:35;;;;;;;0.40;0.40;;;;;;;;;;5020265;28;20060;-79
2022/01/01 05:41:01;;;;;;;0.30;0.30;;;;;;;;;;5006388;28;20029;-78
2022/01/01 05:43:28;;;;;;;0.57;0.57;;;;;;;;;;5009249;28;20033;-78
2022/01/01 05:45:54;;;;;;;0.40;0.40;;;;;;;;;;5009249;28;20033;-78
2022/01/01 05:48:20;;;;;;;0.40;0.40;;;;;;;;;;5006114;28;20033;-78
2022/01/01 05:50:46;;;;;;;0.33;0.33;;;;;;;;;;5004910;28;20393;-78
2022/01/01 05:53:12;;;;;;;0.40;0.40;;;;;;;;;;5009176;28;20782;-78
2022/01/01 05:55:38;;;;;;;0.40;0.40;;;;;;;;;;5025483;28;20034;-79
2022/01/01 05:58:05;;;;;;;0.30;0.30;;;;;;;;;;5009125;28;20029;-78
2022/01/01 06:00:32;;;;;;;0.30;0.30;;;;;;;;;;5007961;28;20021;-79
2022/01/01 06:02:58;;;;;;;0.30;0.30;;;;;;;;;;5004810;28;20030;-79
2022/01/01 06:05:25;;;;;;;0.30;0.30;;;;;;;;;;5019483;28;20128;-79
2022/01/01 06:07:51;;;;;;;0.30;0.30;;;;;;;;;;5010980;28;20037;-79
2022/01/01 06:10:18;;;;;;;0.30;0.30;;;;;;;;;;5011554;28;20547;-79
2022/01/01 06:12:44;;;;;;;0.60;0.60;;;;;;;;;;5002798;28;20041;-80
2022/01/01 06:15:10;;;;;;;0.40;0.40;;;;;;;;;;5020582;28;20129;-80
2022/01/01 06:17:36;;;;;;;0.40;0.40;;;;;;;;;;5020187;28;20045;-80
2022/01/01 06:20:02;;;;;;;0.50;0.50;;;;;;;;;;5009396;28;20072;-79
2022/01/01 06:22:29;;;;;;;0.40;0.40;;;;;;;;;;5023992;28;20030;-80
2022/01/01 06:24:55;;;;;;;0.40;0.40;;;;;;;;;;5011689;28;20050;-79
2022/01/01 06:27:21;;;;;;;0.50;0.50;;;;;;;;;;5020316;28;20040;-78
2022/01/01 06:29:47;;;;;;;0.40;0.40;;;;;;;;;;5006499;28;20030;-78
2022/01/01 06:32:13;;;;;;;0.40;0.40;;;;;;;;;;5012018;28;20452;-79
2022/01/01 06:34:39;;;;;;;0.40;0.40;;;;;;;;;;5027747;28;20160;-78
2022/01/01 06:37:05;;;;;;;0.60;0.60;;;;;;;;;;5013089;28;20049;-80
2022/01/01 06:39:31;;;;;;;0.40;0.40;;;;;;;;;;5011953;28;20108;-80
2022/01/01 06:41:57;;;;;;;0.60;0.60;;;;;;;;;;5010100;28;20041;-79
2022/01/01 06:44:23;;;;;;;0.40;0.40;;;;;;;;;;5011097;28;20022;-79
2022/01/01 06:46:49;;;;;;;0.50;0.50;;;;;;;;;;5013015;28;20033;-78
2022/01/01 06:49:16;;;;;;;1.87;0.80;;;;;;;;;;5014877;28;20040;-78
2022/01/01 06:51:42;;;;;;;0.40;0.40;;;;;;;;;;5024134;28;20029;-78
2022/01/01 06:54:08;;;;;;;0.60;0.60;;;;;;;;;;5023296;28;20040;-80
2022/01/01 06:56:34;;;;;;;0.40;0.40;;;;;;;;;;5021920;28;20034;-78
2022/01/01 06:59:00;;;;;;;0.40;0.40;;;;;;;;;;5010125;28;20040;-79
2022/01/01 07:01:26;;;;;;;0.40;0.40;;;;;;;;;;5012549;28;20221;-78
2022/01/01 07:03:52;;;;;;;0.40;0.40;;;;;;;;;;5012344;28;20536;-78
2022/01/01 07:06:18;;;;;;;0.40;0.40;;;;;;;;;;5009144;28;20029;-78
2022/01/01 07:08:44;;;;;;;0.30;0.30;;;;;;;;;;5010486;28;20037;-79
2022/01/01 07:11:10;;;;;;;0.38;0.38;;;;;;;;;;5013263;28;20379;-80
2022/01/01 07:13:36;;;;;;;0.40;0.40;;;;;;;;;;5027491;28;20033;-78
2022/01/01 07:16:02;;;;;;;0.30;0.30;;;;;;;;;;5043751;28;20050;-77
2022/01/01 07:18:28;;;;;;;0.50;0.50;;;;;;;;;;5010610;28;20030;-78
2022/01/01 07:20:54;;;;;;;0.30;0.30;;;;;;;;;;5009719;28;20569;-77
2022/01/01 07:23:20;;;;;;;0.30;0.30;;;;;;;;;;5012270;28;20049;-77
2022/01/01 07:25:46;;;;;;;0.52;0.52;;;;;;;;;;5014502;28;20033;-77
2022/01/01 07:28:16;;;;;;;0.47;0.47;;;;;;;;;;5012029;28;20026;-77
2022/01/01 07:30:42;;;;;;;0.40;0.40;;;;;;;;;;5011764;28;20150;-77
2022/01/01 07:33:08;;;;;;;0.50;0.50;;;;;;;;;;5008728;28;20501;-78
2022/01/01 07:35:36;;;;;;;0.50;0.50;;;;;;;;;;5022478;28;20771;-78
2022/01/01 07:38:03;;;;;;;0.47;0.47;;;;;;;;;;5019413;28;20045;-78
2022/01/01 07:40:30;;;;;;;0.57;0.57;;;;;;;;;;5023217;28;20041;-79
2022/01/01 07:42:57;;;;;;;0.40;0.40;;;;;;;;;;5021700;28;20026;-79
2022/01/01 07:45:23;;;;;;;0.30;0.30;;;;;;;;;;5023386;28;20681;-79
2022/01/01 07:47:49;;;;;;;0.30;0.30;;;;;;;;;;5014486;28;20797;-79
2022/01/01 07:50:15;;;;;;;0.60;0.60;;;;;;;;;;5025269;28;20117;-79
2022/01/01 07:52:42;;;;;;;0.40;0.40;;;;;;;;;;5016456;28;20026;-79
2022/01/01 07:55:08;;;;;;;;;;;;;;;;;;5015701;28;20067;-79
2022/01/01 07:57:34;;;;;;;0.50;0.50;;;;;;;;;;5023256;28;20327;-80
2022/01/01 08:00:00;;;;;;;0.50;0.50;;;;;;;;;;5023904;28;20041;-80
2022/01/01 08:02:26;;;;;;;0.50;0.50;;;;;;;;;;5022262;28;20497;-78
2022/01/01 08:04:52;;;;;;;0.40;0.40;;;;;;;;;;5025509;28;20075;-79
2022/01/01 08:07:18;;;;;;;0.47;0.47;;;;;;;;;;5023534;28;20136;-78
2022/01/01 08:09:44;;;;;;;0.45;0.45;;;;;;;;;;5023824;28;20033;-79
2022/01/01 08:12:10;;;;;;;0.73;0.73;;;;;;;;;;5027866;28;20459;-79
2022/01/01 08:14:36;;;;;;;0.60;0.60;;;;;;;;;;5022289;28;20049;-79
2022/01/01 08:17:04;;;;;;;0.50;0.50;;;;;;;;;;5033637;28;20036;-79
2022/01/01 08:19:30;;;;;;;0.40;0.40;;;;;;;;;;5031004;28;20026;-79
2022/01/01 08:21:56;;;;;;;0.50;0.50;;;;;;;;;;5036148;28;20855;-79
2022/01/01 08:24:23;;;;;;;0.60;0.60;;;;;;;;;;5033869;28;20037;-79
2022/01/01 08:26:49;;;;;;;0.52;0.52;;;;;;;;;;5018136;28;20025;-79
2022/01/01 08:29:15;;;;;;;0.50;0.50;;;;;;;;;;5029889;28;20030;-78
2022/01/01 08:31:41;;;;;;;0.50;0.50;;;;;;;;;;5014463;28;20045;-79
2022/01/01 08:34:07;;;;;;;0.50;0.50;;;;;;;;;;5016387;28;20033;-79
2022/01/01 08:36:33;;;;;;;0.50;0.50;;;;;;;;;;5046009;28;20037;-78
2022/01/01 08:38:59;;;;;;;0.50;0.50;;;;;;;;;;5033106;28;20061;-78
2022/01/01 08:41:25;;;;;;;0.50;0.50;;;;;;;;;;5035575;28;20063;-79
2022/01/01 08:43:53;;;;;;;0.40;0.40;;;;;;;;;;5023387;28;20896;-78
2022/01/01 08:46:19;;;;;;;0.73;0.73;;;;;;;;;;5029986;28;20040;-78
2022/01/01 08:48:45;;;;;;;0.40;0.40;;;;;;;;;;5030874;28;20513;-78
2022/01/01 08:51:16;;;;;;;0.30;0.30;;;;;;;;;;5031480;28;20523;-78
2022/01/01 08:53:42;;;;;;;0.30;0.30;;;;;;;;;;5024699;28;20030;-78
2022/01/01 08:56:09;;;;;;;0.30;0.30;;;;;;;;;;5033111;28;20090;-78
2022/01/01 08:58:35;;;;;;;0.40;0.40;;;;;;;;;;5033741;28;20032;-78
2022/01/01 09:01:02;;;;;;;0.50;0.50;;;;;;;;;;5037221;28;20587;-77
2022/01/01 09:03:28;;;;;;;0.47;0.47;;;;;;;;;;5036431;28;20279;-79
2022/01/01 09:05:54;;;;;;;0.40;0.40;;;;;;;;;;5029737;28;20038;-79
2022/01/01 09:08:20;;;;;;;0.40;0.40;;;;;;;;;;5009595;28;20501;-78
2022/01/01 09:10:46;;;;;;;0.40;0.40;;;;;;;;;;5014977;28;20044;-78
2022/01/01 09:13:12;;;;;;;0.40;0.40;;;;;;;;;;5010399;28;20459;-78
2022/01/01 09:15:38;;;;;;;0.40;0.40;;;;;;;;;;5013925;28;20334;-77
2022/01/01 09:18:04;;;;;;;0.40;0.40;;;;;;;;;;5020560;28;20029;-78
2022/01/01 09:20:30;;;;;;;0.50;0.50;;;;;;;;;;5025895;28;20074;-80
2022/01/01 09:22:57;;;;;;;0.40;0.40;;;;;;;;;;5032689;28;20032;-79
2022/01/01 09:25:23;;;;;;;0.60;0.60;;;;;;;;;;5034045;28;20810;-78
2022/01/01 09:27:49;;;;;;;0.50;0.50;;;;;;;;;;5033682;28;20495;-78
2022/01/01 09:30:15;;;;;;;0.63;0.63;;;;;;;;;;5033938;28;20029;-78
2022/01/01 09:32:41;;;;;;;0.47;0.47;;;;;;;;;;5038872;28;20068;-78
2022/01/01 09:35:07;;;;;;;0.50;0.50;;;;;;;;;;5029486;28;20401;-78
2022/01/01 09:37:33;;;;;;;0.40;0.40;;;;;;;;;;5026002;28;20044;-78
2022/01/01 09:40:00;;;;;;;0.45;0.45;;;;;;;;;;5027391;28;20275;-78
2022/01/01 09:42:26;;;;;;;;;;;;;;;;;;5015280;28;20786;-78
2022/01/01 09:44:53;;;;;;;0.40;0.40;;;;;;;;;;5033253;28;19912;-77
2022/01/01 09:47:19;;;;;;;0.40;0.40;;;;;;;;;;5028580;28;20036;-77
2022/01/01 09:49:45;;;;;;;0.40;0.40;;;;;;;;;;5025433;28;20022;-77
2022/01/01 09:52:13;;;;;;;0.40;0.40;;;;;;;;;;5029814;28;20040;-78
2022/01/01 09:54:39;;;;;;;0.60;0.60;;;;;;;;;;5030179;28;20033;-78
2022/01/01 09:57:05;;;;;;;0.40;0.40;;;;;;;;;;5030022;28;20030;-78
2022/01/01 09:59:31;;;;;;;0.40;0.40;;;;;;;;;;5030221;28;20436;-78
2022/01/01 10:01:58;;;;;;;0.50;0.50;;;;;;;;;;5030644;28;20286;-78
2022/01/01 10:04:24;;;;;;;0.57;0.57;;;;;;;;;;5028677;28;20437;-77
2022/01/01 10:07:05;;;;;;;0.40;0.40;;;;;;;;;;5026817;28;20040;-78
2022/01/01 10:09:32;;;;;;;0.40;0.40;;;;;;;;;;5030389;28;20467;-77
2022/01/01 10:11:59;;;;;;;0.40;0.40;;;;;;;;;;5028505;28;20028;-78
2022/01/01 10:14:38;;;;;;;0.50;0.50;;;;;;;;;;5027024;28;20442;-78
2022/01/01 10:17:16;;;;;;;0.40;0.40;;;;;;;;;;5030038;28;20523;-78
2022/01/01 10:19:42;;;;;;;0.40;0.40;;;;;;;;;;5031389;28;20025;-77
2022/01/01 10:22:13;;;;;;;0.60;0.60;;;;;;;;;;5038697;28;20029;-78
2022/01/01 10:30:17;;;;;;;0.40;0.40;;;;;;;;;;5027286;28;20032;-78
2022/01/01 10:32:59;;;;;;;0.60;0.60;;;;;;;;;;5022617;28;20326;-78
2022/01/01 10:35:25;;;;;;;0.40;0.40;;;;;;;;;;5030936;28;20024;-79
2022/01/01 10:37:51;;;;;;;0.45;0.45;;;;;;;;;;5030924;28;20072;-78
2022/01/01 10:40:27;;;;;;;0.40;0.40;;;;;;;;;;5030378;28;20047;-78
2022/01/01 10:42:53;;;;;;;0.40;0.40;;;;;;;;;;5028837;28;20029;-78
2022/01/01 10:45:29;;;;;;;0.40;0.40;;;;;;;;;;5032103;28;20021;-78
2022/01/01 10:48:26;;;;;;;0.60;0.60;;;;;;;;;;5018143;28;20106;-78
2022/01/01 10:50:53;;;;;;;0.50;0.50;;;;;;;;;;5035255;28;20033;-77
2022/01/01 10:53:21;;;;;;;0.40;0.40;;;;;;;;;;5031030;28;20025;-79
2022/01/01 10:55:49;;;;;;;0.40;0.40;;;;;;;;;;5015033;28;20072;-80
2022/01/01 10:58:20;;;;;;;0.40;0.40;;;;;;;;;;5017148;28;20128;-79
2022/01/01 11:00:47;;;;;;;0.40;0.40;;;;;;;;;;5000457;28;20081;-80
2022/01/01 11:03:17;;;;;;;0.40;0.40;;;;;;;;;;4995173;28;20037;-78
2022/01/01 11:05:43;;;;;;;0.40;0.40;;;;;;;;;;4990829;28;20031;-78
2022/01/01 11:08:10;;;;;;;0.40;0.40;;;;;;;;;;4996460;28;20026;-80
2022/01/01 11:10:37;;;;;;;0.50;0.50;;;;;;;;;;4994106;28;20074;-78
2022/01/01 11:13:04;;;;;;;0.40;0.40;;;;;;;;;;4994211;28;20038;-78
2022/01/01 11:15:30;;;;;;;0.50;0.50;;;;;;;;;;4999218;28;20052;-78
2022/01/01 11:17:56;;;;;;;;;;;;;;;;;;5002853;28;20038;-78
2022/01/01 11:20:23;;;;;;;0.30;0.30;;;;;;;;;;5002488;28;19920;-78
2022/01/01 11:22:49;;;;;;;0.40;0.40;;;;;;;;;;5003272;28;20037;-79
2022/01/01 11:25:16;;;;;;;0.40;0.40;;;;;;;;;;5003201;28;20029;-78
2022/01/01 11:27:43;;;;;;;0.40;0.40;;;;;;;;;;5005105;28;20049;-78
2022/01/01 11:30:13;;;;;;;0.30;0.30;;;;;;;;;;5003818;28;20034;-78
2022/01/01 11:32:42;;;;;;;0.30;0.30;;;;;;;;;;4999538;28;20137;-78
2022/01/01 11:35:29;;;;;;;0.40;0.40;;;;;;;;;;4997380;28;20042;-78
2022/01/01 11:38:08;;;;;;;0.32;0.32;;;;;;;;;;5000702;28;20545;-78
2022/01/01 11:40:40;;;;;;;0.40;0.40;;;;;;;;;;4999522;28;20329;-78
2022/01/01 11:43:07;;;;;;;0.30;0.30;;;;;;;;;;4997601;28;20026;-78
2022/01/01 11:45:40;;;;;;;0.32;0.32;;;;;;;;;;5004282;28;20049;-78
2022/01/01 11:48:25;;;;;;;0.30;0.30;;;;;;;;;;5012800;28;20030;-78
2022/01/01 11:50:51;;;;;;;0.30;0.30;;;;;;;;;;4994363;28;20518;-79
2022/01/01 11:53:33;;;;;;;0.30;0.30;;;;;;;;;;4999654;28;20109;-79
2022/01/01 11:56:06;;;;;;;0.40;0.40;;;;;;;;;;4995621;28;20041;-78
2022/01/01 11:58:51;;;;;;;0.30;0.30;;;;;;;;;;4995922;28;20049;-78
2022/01/01 12:01:19;;;;;;;0.30;0.30;;;;;;;;;;4993051;28;20585;-78
2022/01/01 12:03:49;;;;;;;0.40;0.40;;;;;;;;;;5003752;28;20030;-78
2022/01/01 12:06:15;;;;;;;0.40;0.40;;;;;;;;;;4994029;28;20026;-78
2022/01/01 12:08:42;;;;;;;0.30;0.30;;;;;;;;;;4996783;28;20026;-78
2022/01/01 12:11:09;;;;;;;0.30;0.30;;;;;;;;;;4993725;28;20502;-78
2022/01/01 12:13:38;;;;;;;0.30;0.30;;;;;;;;;;5000768;28;20025;-79
2022/01/01 12:16:20;;;;;;;0.30;0.30;;;;;;;;;;5001975;28;20042;-78
2022/01/01 12:18:46;;;;;;;0.30;0.30;;;;;;;;;;5003338;28;20057;-78
2022/01/01 12:21:20;;;;;;;0.50;0.50;;;;;;;;;;4999190;28;20084;-78
2022/01/01 12:23:48;;;;;;;0.30;0.30;;;;;;;;;;4993682;28;20117;-78
2022/01/01 12:26:15;;;;;;;0.40;0.40;;;;;;;;;;5003680;28;20038;-78
2022/01/01 12:28:43;;;;;;;0.30;0.30;;;;;;;;;;4997536;28;20026;-78
2022/01/01 12:31:10;;;;;;;0.30;0.30;;;;;;;;;;5002594;28;20037;-78
2022/01/01 12:33:41;;;;;;;0.30;0.30;;;;;;;;;;5004490;28;20034;-78
2022/01/01 12:36:08;;;;;;;0.30;0.30;;;;;;;;;;4998389;28;20038;-78
2022/01/01 12:38:35;;;;;;;0.30;0.30;;;;;;;;;;5009306;28;20041;-78
2022/01/01 12:41:05;;;;;;;0.40;0.40;;;;;;;;;;5002663;28;20025;-78
2022/01/01 12:43:33;;;;;;;0.30;0.30;;;;;;;;;;5000290;28;20036;-78
2022/01/01 12:46:00;;;;;;;0.30;0.30;;;;;;;;;;5003359;28;20029;-79
2022/01/01 12:48:27;;;;;;;0.30;0.30;;;;;;;;;;4998807;28;20030;-77
2022/01/01 12:51:00;;;;;;;0.28;0.28;;;;;;;;;;5002189;28;20040;-78
2022/01/01 12:53:27;;;;;;;0.28;0.28;;;;;;;;;;5024745;28;20051;-78
2022/01/01 12:55:53;;;;;;;;;;;;;;;;;;5004562;28;20062;-78
2022/01/01 12:58:21;;;;;;;0.38;0.38;;;;;;;;;;5008118;28;19924;-79
2022/01/01 13:00:47;;;;;;;0.30;0.30;;;;;;;;;;5009802;28;20034;-78
2022/01/01 13:03:14;;;;;;;0.30;0.30;;;;;;;;;;5006593;28;20030;-78
2022/01/01 13:05:40;;;;;;;0.30;0.30;;;;;;;;;;5003523;28;20037;-79
2022/01/01 13:08:06;;;;;;;0.30;0.30;;;;;;;;;;5004695;28;20141;-79
2022/01/01 13:10:33;;;;;;;0.30;0.30;;;;;;;;;;4999240;28;20056;-78
2022/01/01 13:13:00;;;;;;;0.25;0.25;;;;;;;;;;4993821;28;20724;-78
2022/01/01 13:15:26;;;;;;;0.40;0.40;;;;;;;;;;4988348;28;20429;-78
2022/01/01 13:17:52;;;;;;;0.30;0.30;;;;;;;;;;4998896;28;20103;-78
2022/01/01 13:20:18;;;;;;;0.30;0.30;;;;;;;;;;5000247;28;20170;-78
2022/01/01 13:22:44;;;;;;;0.30;0.30;;;;;;;;;;4995015;28;20288;-78
2022/01/01 13:25:10;;;;;;;0.30;0.30;;;;;;;;;;4995556;28;20026;-78
2022/01/01 13:27:36;;;;;;;0.30;0.30;;;;;;;;;;4987661;28;20034;-78
2022/01/01 13:30:03;;;;;;;0.30;0.30;;;;;;;;;;4991676;28;20042;-78
2022/01/01 13:32:30;;;;;;;0.30;0.30;;;;;;;;;;5004940;28;20471;-78
2022/01/01 13:35:01;;;;;;;0.30;0.30;;;;;;;;;;5001692;28;20025;-78
2022/01/01 13:37:27;;;;;;;0.30;0.30;;;;;;;;;;5001469;28;20030;-78
2022/01/01 13:39:56;;;;;;;0.30;0.30;;;;;;;;;;5011575;28;20026;-78
2022/01/01 13:42:22;;;;;;;0.30;0.30;;;;;;;;;;5002949;28;20029;-78
2022/01/01 13:44:48;;;;;;;0.30;0.30;;;;;;;;;;5003159;28;20053;-78
2022/01/01 13:47:15;;;;;;;0.20;0.20;;;;;;;;;;5006256;28;20026;-78
2022/01/01 13:49:41;;;;;;;;;;;;;;;;;;5005403;28;20036;-79
2022/01/01 13:52:08;;;;;;;0.30;0.30;;;;;;;;;;5001983;28;20308;-78
2022/01/01 13:54:37;;;;;;;0.30;0.30;;;;;;;;;;5002322;28;20101;-78
2022/01/01 13:57:07;;;;;;;0.30;0.30;;;;;;;;;;5003066;28;20042;-78
2022/01/01 13:59:34;;;;;;;0.20;0.20;;;;;;;;;;5000009;28;20021;-78
2022/01/01 14:02:04;;;;;;;0.20;0.20;;;;;;;;;;5000660;28;20052;-78
2022/01/01 14:04:30;;;;;;;0.30;0.30;;;;;;;;;;4999624;28;20035;-78
2022/01/01 14:07:03;;;;;;;0.20;0.20;;;;;;;;;;5009106;28;20052;-81
2022/01/01 14:09:29;;;;;;;0.25;0.25;;;;;;;;;;5002817;28;20390;-80
2022/01/01 14:11:56;;;;;;;0.20;0.20;;;;;;;;;;4999967;28;20030;-80
2022/01/01 14:14:27;;;;;;;0.30;0.30;;;;;;;;;;5002215;28;20073;-80
2022/01/01 14:16:53;;;;;;;0.20;0.20;;;;;;;;;;4985608;28;20157;-80
2022/01/01 14:19:20;;;;;;;0.30;0.30;;;;;;;;;;4988926;28;20073;-80
2022/01/01 14:21:47;;;;;;;0.50;0.50;;;;;;;;;;4987501;28;20753;-80
2022/01/01 14:24:18;;;;;;;0.30;0.30;;;;;;;;;;4991337;28;20026;-80
2022/01/01 14:26:45;;;;;;;0.20;0.20;;;;;;;;;;4983888;28;20026;-80
2022/01/01 14:29:12;;;;;;;0.20;0.20;;;;;;;;;;4989389;28;20038;-79
2022/01/01 14:31:38;;;;;;;0.20;0.20;;;;;;;;;;4985971;28;20034;-80
2022/01/01 14:34:04;;;;;;;0.30;0.30;;;;;;;;;;4988004;28;20532;-80
2022/01/01 14:36:39;;;;;;;0.20;0.20;;;;;;;;;;5016337;28;20344;-80
2022/01/01 14:39:05;;;;;;;0.20;0.20;;;;;;;;;;4988100;28;20422;-79
2022/01/01 14:41:31;;;;;;;0.20;0.20;;;;;;;;;;4993764;28;20021;-79
2022/01/01 14:43:57;;;;;;;0.30;0.30;;;;;;;;;;4989347;28;20030;-79
2022/01/01 14:46:24;;;;;;;0.20;0.20;;;;;;;;;;4992206;28;20517;-79
2022/01/01 14:48:57;;;;;;;0.25;0.25;;;;;;;;;;4989078;28;20030;-79
2022/01/01 14:51:28;;;;;;;0.30;0.30;;;;;;;;;;4989404;28;20034;-79
2022/01/01 14:54:04;;;;;;;0.20;0.20;;;;;;;;;;4993674;28;20060;-78
2022/01/01 14:56:39;;;;;;;0.30;0.30;;;;;;;;;;4994408;28;20038;-78